createdAt,value
2022-10-01T00:01:03.121Z,7.00
2022-10-01T00:03:31.588Z,6.90
2022-10-01T00:06:01.885Z,7.00
2022-10-01T00:08:29.790Z,6.80
2022-10-01T00:10:56.596Z,6.90
2022-10-01T00:13:23.255Z,6.90
2022-10-01T00:15:50.147Z,6.80
2022-10-01T00:18:16.778Z,6.90
2022-10-01T00:20:43.643Z,6.90
2022-10-01T00:23:14.775Z,6.90
2022-10-01T00:25:41.852Z,6.90
2022-10-01T00:28:08.670Z,6.80
2022-10-01T00:30:40.156Z,6.80
2022-10-01T00:33:06.962Z,6.80
2022-10-01T00:35:33.659Z,6.90
2022-10-01T00:38:00.289Z,6.90
2022-10-01T00:40:26.977Z,6.90
2022-10-01T00:42:53.650Z,6.70
2022-10-01T00:45:20.381Z,6.80
2022-10-01T00:47:54.989Z,6.80
2022-10-01T00:50:33.074Z,6.80
2022-10-01T00:53:14.457Z,6.60
2022-10-01T00:55:48.569Z,6.70
2022-10-01T00:58:15.609Z,6.80
2022-10-01T01:00:43.003Z,6.80
2022-10-01T01:03:10.972Z,6.80
2022-10-01T01:05:37.699Z,6.80
2022-10-01T01:08:05.000Z,6.90
2022-10-01T01:11:12.240Z,6.80
2022-10-01T01:13:41.953Z,6.80
2022-10-01T01:16:16.982Z,7.00
2022-10-01T01:19:04.708Z,7.10
2022-10-01T01:21:43.597Z,7.10
2022-10-01T01:24:17.877Z,7.20
2022-10-01T01:27:19.804Z,7.30
2022-10-01T01:30:04.435Z,7.30
2022-10-01T01:32:55.028Z,7.50
2022-10-01T01:35:31.534Z,7.50
2022-10-01T01:38:04.864Z,7.60
2022-10-01T01:40:36.702Z,7.70
2022-10-01T01:43:07.182Z,7.80
2022-10-01T01:45:38.328Z,8.00
2022-10-01T01:48:06.543Z,8.10
2022-10-01T01:50:42.263Z,8.20
2022-10-01T01:53:09.289Z,8.30
2022-10-01T01:55:37.167Z,8.30
2022-10-01T01:58:03.899Z,8.30
2022-10-01T02:00:30.600Z,8.30
2022-10-01T02:02:58.068Z,8.50
2022-10-01T02:05:29.083Z,8.50
2022-10-01T02:08:07.654Z,8.60
2022-10-01T02:10:49.134Z,8.70
2022-10-01T02:13:48.229Z,8.90
2022-10-01T02:16:40.004Z,8.90
2022-10-01T02:19:21.190Z,8.80
2022-10-01T02:22:05.540Z,8.90
2022-10-01T02:24:38.454Z,8.90
2022-10-01T02:27:12.943Z,9.00
2022-10-01T02:29:40.396Z,9.10
2022-10-01T02:32:08.437Z,9.00
2022-10-01T02:34:35.449Z,9.10
2022-10-01T02:37:05.228Z,9.10
2022-10-01T02:39:33.966Z,9.10
2022-10-01T02:42:02.365Z,9.00
2022-10-01T02:44:37.925Z,9.00
2022-10-01T02:47:25.011Z,9.10
2022-10-01T02:49:52.246Z,9.10
2022-10-01T02:52:34.971Z,9.00
2022-10-01T02:55:12.082Z,9.00
2022-10-01T02:57:39.265Z,9.00
2022-10-01T03:00:15.517Z,9.00
2022-10-01T03:02:42.621Z,9.00
2022-10-01T03:05:09.549Z,9.00
2022-10-01T03:07:36.236Z,9.00
2022-10-01T03:10:04.683Z,9.10
2022-10-01T03:12:31.636Z,9.00
2022-10-01T03:14:58.351Z,9.00
2022-10-01T03:17:25.199Z,9.10
2022-10-01T03:19:52.037Z,9.20
2022-10-01T03:22:22.539Z,9.10
2022-10-01T03:24:53.371Z,9.10
2022-10-01T03:27:23.193Z,9.10
2022-10-01T03:29:50.376Z,9.20
2022-10-01T03:32:17.758Z,9.20
2022-10-01T03:34:44.902Z,9.20
2022-10-01T03:40:52.826Z,9.20
2022-10-01T03:43:19.511Z,9.10
2022-10-01T03:45:46.668Z,9.20
2022-10-01T03:48:13.519Z,9.10
2022-10-01T03:50:40.273Z,9.20
2022-10-01T03:53:07.156Z,9.20
2022-10-01T03:55:33.881Z,9.20
2022-10-01T03:58:00.637Z,9.20
2022-10-01T04:00:27.810Z,9.20
2022-10-01T04:02:54.541Z,9.20
2022-10-01T04:05:21.225Z,9.20
2022-10-01T04:07:48.531Z,9.20
2022-10-01T04:10:15.392Z,9.10
2022-10-01T04:12:42.068Z,9.20
2022-10-01T04:15:09.104Z,9.30
2022-10-01T04:17:36.935Z,9.30
2022-10-01T04:20:03.893Z,9.30
2022-10-01T04:22:30.547Z,9.30
2022-10-01T04:24:57.209Z,9.30
2022-10-01T04:27:23.901Z,9.30
2022-10-01T04:29:50.559Z,9.30
2022-10-01T04:32:18.479Z,9.40
2022-10-01T04:34:53.993Z,9.40
2022-10-01T04:37:23.924Z,9.40
2022-10-01T04:39:50.650Z,9.40
2022-10-01T04:42:17.678Z,9.40
2022-10-01T04:44:44.340Z,9.40
2022-10-01T04:47:11.099Z,9.50
2022-10-01T04:49:37.821Z,9.50
2022-10-01T04:52:05.563Z,9.50
2022-10-01T04:54:32.215Z,9.50
2022-10-01T04:56:58.902Z,9.50
2022-10-01T04:59:25.762Z,9.50
2022-10-01T05:01:52.781Z,9.50
2022-10-01T05:04:19.555Z,9.50
2022-10-01T05:06:46.224Z,9.60
2022-10-01T05:09:12.881Z,9.60
2022-10-01T05:11:39.815Z,9.60
2022-10-01T05:14:06.523Z,9.60
2022-10-01T05:16:33.259Z,9.60
2022-10-01T05:18:59.983Z,9.70
2022-10-01T05:21:26.844Z,9.70
2022-10-01T05:23:54.197Z,9.70
2022-10-01T05:26:20.896Z,9.70
2022-10-01T05:28:47.601Z,9.70
2022-10-01T05:31:14.313Z,9.70
2022-10-01T05:33:41.003Z,9.80
2022-10-01T05:36:07.795Z,9.80
2022-10-01T05:38:37.258Z,9.80
2022-10-01T05:41:04.824Z,9.80
2022-10-01T05:43:31.555Z,9.80
2022-10-01T05:46:02.134Z,9.80
2022-10-01T05:48:29.462Z,9.80
2022-10-01T05:50:56.129Z,9.80
2022-10-01T05:53:23.585Z,9.80
2022-10-01T05:55:50.244Z,9.90
2022-10-01T05:58:17.321Z,9.80
2022-10-01T06:00:44.358Z,9.80
2022-10-01T06:03:13.096Z,9.80
2022-10-01T06:05:39.973Z,9.70
2022-10-01T06:08:07.469Z,9.70
2022-10-01T06:10:35.083Z,9.70
2022-10-01T06:13:02.471Z,9.70
2022-10-01T06:15:30.348Z,9.70
2022-10-01T06:17:57.090Z,9.70
2022-10-01T06:20:24.109Z,9.70
2022-10-01T06:22:55.332Z,9.70
2022-10-01T06:25:22.173Z,9.70
2022-10-01T06:27:55.560Z,9.60
2022-10-01T06:30:22.709Z,9.70
2022-10-01T06:32:49.336Z,9.60
2022-10-01T06:35:16.116Z,9.60
2022-10-01T06:37:42.777Z,9.60
2022-10-01T06:40:09.956Z,9.60
2022-10-01T06:42:36.597Z,9.70
2022-10-01T06:45:03.887Z,9.70
2022-10-01T06:47:30.645Z,9.70
2022-10-01T06:49:59.410Z,9.70
2022-10-01T06:52:44.660Z,9.70
2022-10-01T06:55:16.321Z,9.70
2022-10-01T06:57:43.586Z,9.70
2022-10-01T07:00:11.428Z,9.80
2022-10-01T07:02:38.356Z,9.80
2022-10-01T07:05:06.073Z,9.80
2022-10-01T07:07:35.378Z,9.70
2022-10-01T07:10:04.277Z,9.70
2022-10-01T07:12:30.981Z,9.70
2022-10-01T07:14:57.681Z,9.70
2022-10-01T07:17:24.661Z,9.70
2022-10-01T07:19:51.404Z,9.80
2022-10-01T07:22:19.352Z,9.80
2022-10-01T07:24:46.656Z,9.70
2022-10-01T07:27:14.361Z,9.70
2022-10-01T07:29:41.861Z,9.70
2022-10-01T07:32:10.384Z,9.70
2022-10-01T07:34:40.296Z,9.70
2022-10-01T07:37:08.028Z,9.80
2022-10-01T07:39:35.691Z,9.70
2022-10-01T07:42:02.403Z,9.70
2022-10-01T07:44:29.487Z,9.70
2022-10-01T07:46:56.881Z,9.70
2022-10-01T07:49:25.189Z,9.80
2022-10-01T07:51:53.265Z,9.80
2022-10-01T07:54:23.225Z,9.80
2022-10-01T07:56:52.910Z,9.80
2022-10-01T07:59:19.653Z,9.80
2022-10-01T08:01:52.480Z,9.80
2022-10-01T08:04:39.142Z,9.80
2022-10-01T08:07:07.985Z,9.80
2022-10-01T08:09:35.521Z,9.80
2022-10-01T08:12:03.004Z,9.90
2022-10-01T08:14:30.415Z,9.90
2022-10-01T08:16:57.715Z,9.90
2022-10-01T08:19:25.282Z,9.90
2022-10-01T08:21:52.809Z,9.90
2022-10-01T08:24:20.174Z,9.90
2022-10-01T08:26:53.101Z,9.90
2022-10-01T08:29:20.365Z,9.90
2022-10-01T08:31:47.148Z,10.00
2022-10-01T08:34:14.640Z,10.00
2022-10-01T08:36:41.390Z,10.00
2022-10-01T08:39:08.317Z,10.00
2022-10-01T08:41:43.916Z,10.00
2022-10-01T08:44:23.792Z,10.00
2022-10-01T08:46:52.196Z,10.00
2022-10-01T08:49:27.815Z,10.00
2022-10-01T08:52:09.668Z,10.00
2022-10-01T08:54:40.737Z,10.10
2022-10-01T08:57:14.457Z,10.00
2022-10-01T08:59:56.237Z,10.10
2022-10-01T09:02:49.312Z,10.10
2022-10-01T09:05:33.023Z,10.10
2022-10-01T09:08:09.626Z,10.10
2022-10-01T09:11:04.384Z,10.20
2022-10-01T09:13:51.587Z,10.20
2022-10-01T09:16:31.330Z,10.20
2022-10-01T09:19:04.058Z,10.20
2022-10-01T09:21:55.622Z,10.20
2022-10-01T09:24:44.223Z,10.20
2022-10-01T09:27:16.073Z,10.30
2022-10-01T09:29:56.468Z,10.30
2022-10-01T09:32:27.208Z,10.30
2022-10-01T09:34:54.896Z,10.30
2022-10-01T09:37:41.878Z,10.30
2022-10-01T09:40:15.817Z,10.30
2022-10-01T09:42:43.418Z,10.30
2022-10-01T09:45:15.323Z,10.30
2022-10-01T09:47:45.866Z,10.30
2022-10-01T09:50:16.931Z,10.30
2022-10-01T09:52:48.677Z,10.30
2022-10-01T09:55:18.427Z,10.30
2022-10-01T09:57:50.310Z,10.30
2022-10-01T10:00:20.339Z,10.30
2022-10-01T10:02:49.664Z,10.30
2022-10-01T10:05:22.108Z,10.30
2022-10-01T10:08:03.068Z,10.30
2022-10-01T10:10:31.120Z,10.40
2022-10-01T10:13:01.783Z,10.40
2022-10-01T10:15:31.354Z,10.50
2022-10-01T10:18:10.184Z,10.60
2022-10-01T10:20:40.707Z,10.50
2022-10-01T10:23:21.662Z,10.60
2022-10-01T10:26:02.965Z,10.70
2022-10-01T10:28:43.269Z,10.70
2022-10-01T10:31:19.147Z,10.70
2022-10-01T10:34:08.271Z,10.80
2022-10-01T10:36:37.061Z,10.80
2022-10-01T10:39:06.948Z,10.80
2022-10-01T10:41:34.721Z,10.80
2022-10-01T10:44:07.781Z,10.70
2022-10-01T10:46:38.170Z,10.80
2022-10-01T10:49:14.993Z,10.80
2022-10-01T10:51:53.869Z,10.80
2022-10-01T10:54:40.094Z,10.80
2022-10-01T10:57:29.997Z,10.80
2022-10-01T10:59:59.311Z,10.90
2022-10-01T11:02:31.400Z,10.90
2022-10-01T11:05:04.515Z,10.90
2022-10-01T11:07:31.936Z,10.90
2022-10-01T11:10:20.666Z,11.00
2022-10-01T11:12:57.356Z,11.00
2022-10-01T11:15:43.306Z,11.00
2022-10-01T11:18:36.155Z,11.10
2022-10-01T11:21:21.113Z,11.10
2022-10-01T11:23:53.572Z,11.00
2022-10-01T11:26:28.791Z,11.10
2022-10-01T11:29:22.892Z,11.10
2022-10-01T11:32:26.516Z,11.20
2022-10-01T11:35:13.855Z,11.20
2022-10-01T11:37:41.522Z,11.20
2022-10-01T11:40:36.497Z,11.20
2022-10-01T11:43:19.242Z,11.30
2022-10-01T11:45:54.076Z,11.30
2022-10-01T11:48:32.756Z,11.40
2022-10-01T11:51:12.458Z,11.40
2022-10-01T11:53:45.485Z,11.50
2022-10-01T11:56:41.477Z,11.60
2022-10-01T11:59:26.394Z,11.60
2022-10-01T12:02:20.113Z,11.60
2022-10-01T12:04:58.106Z,11.70
2022-10-01T12:07:54.100Z,11.60
2022-10-01T12:10:46.673Z,11.60
2022-10-01T12:13:16.358Z,11.60
2022-10-01T12:15:58.060Z,11.60
2022-10-01T12:18:46.975Z,11.60
2022-10-01T12:21:25.972Z,11.70
2022-10-01T12:24:10.415Z,11.70
2022-10-01T12:26:54.764Z,11.60
2022-10-01T12:29:25.170Z,11.60
2022-10-01T12:32:04.363Z,11.60
2022-10-01T12:34:57.293Z,11.60
2022-10-01T12:37:35.723Z,11.60
2022-10-01T12:40:24.423Z,11.60
2022-10-01T12:43:18.421Z,11.60
2022-10-01T12:46:05.587Z,11.70
2022-10-01T12:48:54.761Z,11.70
2022-10-01T12:55:05.469Z,11.80
2022-10-01T12:57:50.469Z,11.80
2022-10-01T13:00:20.923Z,11.80
2022-10-01T13:03:12.143Z,11.80
2022-10-01T13:05:44.939Z,11.80
2022-10-01T13:08:17.793Z,11.80
2022-10-01T13:10:59.872Z,11.90
2022-10-01T13:13:34.674Z,11.90
2022-10-01T13:16:19.074Z,11.90
2022-10-01T13:19:14.428Z,11.90
2022-10-01T13:22:03.467Z,11.90
2022-10-01T13:24:38.585Z,12.00
2022-10-01T13:27:12.163Z,12.00
2022-10-01T13:30:00.998Z,12.00
2022-10-01T13:32:58.467Z,12.00
2022-10-01T13:35:39.260Z,12.00
2022-10-01T13:38:17.337Z,12.00
2022-10-01T13:40:45.516Z,12.10
2022-10-01T13:43:22.014Z,12.00
2022-10-01T13:45:51.594Z,12.10
2022-10-01T13:48:23.412Z,12.10
2022-10-01T13:51:16.326Z,12.20
2022-10-01T13:53:42.921Z,12.20
2022-10-01T13:56:12.883Z,12.20
2022-10-01T13:58:44.574Z,12.30
2022-10-01T14:01:23.629Z,12.30
2022-10-01T14:04:18.817Z,12.40
2022-10-01T14:06:53.601Z,12.40
2022-10-01T14:09:29.593Z,12.40
2022-10-01T14:12:14.990Z,12.40
2022-10-01T14:15:08.219Z,12.40
2022-10-01T14:17:36.419Z,12.50
2022-10-01T14:20:03.844Z,12.50
2022-10-01T14:22:33.215Z,12.60
2022-10-01T14:25:06.017Z,12.60
2022-10-01T14:28:00.213Z,12.60
2022-10-01T14:30:45.628Z,12.60
2022-10-01T14:33:34.321Z,12.70
2022-10-01T14:36:21.269Z,12.70
2022-10-01T14:38:48.319Z,12.80
2022-10-01T14:41:19.977Z,12.80
2022-10-01T14:43:47.073Z,12.80
2022-10-01T14:46:16.658Z,12.80
2022-10-01T14:48:44.005Z,12.80
2022-10-01T14:51:30.859Z,12.90
2022-10-01T14:53:59.661Z,12.90
2022-10-01T14:56:28.115Z,12.90
2022-10-01T14:59:01.744Z,12.90
2022-10-01T15:01:28.995Z,12.90
2022-10-01T15:03:55.737Z,12.90
2022-10-01T15:06:29.655Z,13.00
2022-10-01T15:09:07.923Z,12.90
2022-10-01T15:11:34.825Z,13.00
2022-10-01T15:14:08.277Z,13.00
2022-10-01T15:16:36.242Z,13.00
2022-10-01T15:19:07.620Z,13.00
2022-10-01T15:21:38.707Z,13.00
2022-10-01T15:24:13.457Z,13.00
2022-10-01T15:26:40.191Z,13.00
2022-10-01T15:29:13.046Z,13.00
2022-10-01T15:31:40.972Z,13.00
2022-10-01T15:34:12.368Z,13.00
2022-10-01T15:36:40.458Z,13.00
2022-10-01T15:39:29.895Z,13.10
2022-10-01T15:41:57.125Z,13.10
2022-10-01T15:44:46.395Z,13.10
2022-10-01T15:47:26.483Z,13.10
2022-10-01T15:50:02.265Z,13.10
2022-10-01T15:52:51.999Z,13.10
2022-10-01T15:55:42.039Z,13.20
2022-10-01T15:58:30.589Z,13.10
2022-10-01T16:01:00.585Z,13.10
2022-10-01T16:03:34.378Z,13.10
2022-10-01T16:06:06.852Z,13.20
2022-10-01T16:08:48.969Z,13.20
2022-10-01T16:11:15.927Z,13.20
2022-10-01T16:13:49.010Z,13.20
2022-10-01T16:16:24.364Z,13.30
2022-10-01T16:18:59.818Z,13.30
2022-10-01T16:21:26.869Z,13.30
2022-10-01T16:23:55.522Z,13.30
2022-10-01T16:26:28.219Z,13.30
2022-10-01T16:28:55.819Z,13.30
2022-10-01T16:31:23.461Z,13.30
2022-10-01T16:33:50.118Z,13.20
2022-10-01T16:36:20.171Z,13.20
2022-10-01T16:38:48.152Z,13.20
2022-10-01T16:41:20.165Z,13.20
2022-10-01T16:43:46.952Z,13.30
2022-10-01T16:46:13.625Z,13.20
2022-10-01T16:48:40.470Z,13.20
2022-10-01T16:51:07.262Z,13.20
2022-10-01T16:53:33.966Z,13.30
2022-10-01T16:56:00.991Z,13.20
2022-10-01T16:58:27.799Z,13.20
2022-10-01T17:00:54.558Z,13.20
2022-10-01T17:03:22.524Z,13.20
2022-10-01T17:05:49.933Z,13.20
2022-10-01T17:08:17.107Z,13.30
2022-10-01T17:10:59.947Z,13.20
2022-10-01T17:13:28.175Z,13.20
2022-10-01T17:15:55.031Z,13.20
2022-10-01T17:18:22.495Z,13.20
2022-10-01T17:20:49.136Z,13.30
2022-10-01T17:23:18.037Z,13.20
2022-10-01T17:25:45.606Z,13.20
2022-10-01T17:28:14.965Z,13.20
2022-10-01T17:30:43.690Z,13.20
2022-10-01T17:33:12.446Z,13.30
2022-10-01T17:35:44.504Z,13.20
2022-10-01T17:38:12.182Z,13.20
2022-10-01T17:40:44.684Z,13.20
2022-10-01T17:43:12.542Z,13.20
2022-10-01T17:45:39.430Z,13.20
2022-10-01T17:48:06.387Z,13.20
2022-10-01T17:50:33.389Z,13.20
2022-10-01T17:53:01.329Z,13.20
2022-10-01T17:55:28.203Z,13.20
2022-10-01T17:57:54.841Z,13.20
2022-10-01T18:00:21.620Z,13.20
2022-10-01T18:02:48.333Z,13.20
2022-10-01T18:05:15.230Z,13.20
2022-10-01T18:07:42.645Z,13.20
2022-10-01T18:10:12.486Z,13.20
2022-10-01T18:12:39.753Z,13.20
2022-10-01T18:15:07.008Z,13.20
2022-10-01T18:17:36.316Z,13.20
2022-10-01T18:20:07.774Z,13.20
2022-10-01T18:22:37.843Z,13.20
2022-10-01T18:25:07.571Z,13.10
2022-10-01T18:27:34.345Z,13.20
2022-10-01T18:30:01.023Z,13.20
2022-10-01T18:32:33.323Z,13.10
2022-10-01T18:35:01.799Z,13.20
2022-10-01T18:37:40.707Z,13.10
2022-10-01T18:40:18.246Z,13.10
2022-10-01T18:43:13.347Z,13.10
2022-10-01T18:49:48.160Z,13.10
2022-10-01T18:52:49.335Z,13.10
2022-10-01T18:55:25.280Z,13.10
2022-10-01T18:57:58.497Z,13.10
2022-10-01T19:00:27.439Z,13.10
2022-10-01T19:02:59.690Z,13.00
2022-10-01T19:05:51.364Z,13.00
2022-10-01T19:08:26.898Z,13.00
2022-10-01T19:11:05.640Z,13.00
2022-10-01T19:14:09.551Z,13.00
2022-10-01T19:16:51.850Z,13.00
2022-10-01T19:19:30.908Z,13.00
2022-10-01T19:22:22.508Z,13.00
2022-10-01T19:25:00.968Z,13.00
2022-10-01T19:27:42.694Z,13.00
2022-10-01T19:30:13.330Z,13.00
2022-10-01T19:32:49.430Z,13.00
2022-10-01T19:35:41.514Z,13.00
2022-10-01T19:38:27.309Z,13.00
2022-10-01T19:41:01.326Z,13.00
2022-10-01T19:43:42.949Z,13.00
2022-10-01T19:46:21.841Z,13.00
2022-10-01T19:48:57.660Z,13.00
2022-10-01T19:51:38.790Z,13.00
2022-10-01T19:54:17.900Z,13.00
2022-10-01T19:56:47.708Z,13.00
2022-10-01T19:59:19.853Z,13.00
2022-10-01T20:01:49.197Z,12.90
2022-10-01T20:04:27.932Z,12.90
2022-10-01T20:07:04.066Z,12.90
2022-10-01T20:09:46.258Z,12.80
2022-10-01T20:12:39.120Z,12.80
2022-10-01T20:15:41.191Z,12.80
2022-10-01T20:18:28.552Z,12.80
2022-10-01T20:21:11.377Z,12.80
2022-10-01T20:23:51.404Z,12.80
2022-10-01T20:26:24.419Z,12.80
2022-10-01T20:29:08.003Z,12.80
2022-10-01T20:31:57.861Z,12.80
2022-10-01T20:34:27.562Z,12.70
2022-10-01T20:37:09.839Z,12.70
2022-10-01T20:39:43.989Z,12.70
2022-10-01T20:42:18.080Z,12.70
2022-10-01T20:44:45.296Z,12.70
2022-10-01T20:47:37.126Z,12.70
2022-10-01T20:50:09.147Z,12.70
2022-10-01T20:52:47.108Z,12.60
2022-10-01T20:55:26.659Z,12.60
2022-10-01T20:57:57.299Z,12.60
2022-10-01T21:00:26.809Z,12.60
2022-10-01T21:03:18.695Z,12.60
2022-10-01T21:06:05.608Z,12.60
2022-10-01T21:09:07.632Z,12.50
2022-10-01T21:11:45.462Z,12.60
2022-10-01T21:14:50.990Z,12.60
2022-10-01T21:17:29.942Z,12.50
2022-10-01T21:20:20.950Z,12.50
2022-10-01T21:22:56.467Z,12.50
2022-10-01T21:25:32.395Z,12.50
2022-10-01T21:28:08.210Z,12.50
2022-10-01T21:31:17.789Z,12.50
2022-10-01T21:34:23.569Z,12.50
2022-10-01T21:37:15.064Z,12.50
2022-10-01T21:39:53.524Z,12.40
2022-10-01T21:42:49.801Z,12.40
2022-10-01T21:45:43.676Z,12.50
2022-10-01T21:48:28.752Z,12.40
2022-10-01T21:51:20.651Z,12.40
2022-10-01T21:54:11.475Z,12.30
2022-10-01T21:57:02.141Z,12.20
2022-10-01T21:59:56.716Z,12.20
2022-10-01T22:02:45.127Z,12.20
2022-10-01T22:05:37.286Z,12.10
2022-10-01T22:08:43.658Z,12.10
2022-10-01T22:11:17.090Z,11.80
2022-10-01T22:14:14.134Z,11.80
2022-10-01T22:16:51.849Z,11.70
2022-10-01T22:19:29.550Z,11.60
2022-10-01T22:22:03.452Z,11.50
2022-10-01T22:24:37.701Z,11.50
2022-10-01T22:27:11.519Z,11.40
2022-10-01T22:29:44.415Z,11.30
2022-10-01T22:32:15.134Z,11.30
2022-10-01T22:34:47.997Z,11.20
2022-10-01T22:37:22.630Z,11.10
2022-10-01T22:39:57.704Z,11.10
2022-10-01T22:42:31.538Z,11.10
2022-10-01T22:45:06.538Z,11.00
2022-10-01T22:47:54.702Z,11.00
2022-10-01T22:50:57.266Z,11.00
2022-10-01T22:53:40.789Z,10.90
2022-10-01T22:56:09.443Z,10.90
2022-10-01T22:58:46.783Z,10.80
2022-10-01T23:01:38.857Z,10.80
2022-10-01T23:04:19.557Z,10.90
2022-10-01T23:07:06.958Z,10.90
2022-10-01T23:09:39.276Z,10.90
2022-10-01T23:12:25.271Z,11.00
2022-10-01T23:15:28.565Z,11.10
2022-10-01T23:18:26.873Z,11.20
2022-10-01T23:21:05.794Z,11.30
2022-10-01T23:23:33.540Z,11.40
2022-10-01T23:26:03.256Z,11.40
2022-10-01T23:28:54.478Z,11.50
2022-10-01T23:31:41.388Z,11.50
2022-10-01T23:34:32.086Z,11.60
2022-10-01T23:37:27.231Z,11.60
2022-10-01T23:40:07.799Z,11.70
2022-10-01T23:42:58.379Z,11.70
2022-10-01T23:45:42.874Z,11.70
2022-10-01T23:48:17.597Z,11.70
2022-10-01T23:51:18.019Z,11.70
2022-10-01T23:54:03.266Z,11.60
2022-10-01T23:56:51.232Z,11.70
2022-10-01T23:59:38.829Z,11.70
